sensor_id;sensor_type;location;lat;lon;timestamp;P1;durP1;ratioP1;P2;durP2;ratioP2
62030;SDS011;62035;52.094;5.112;2022-10-16T00:01:41;4.00;;;2.00;;
62030;SDS011;62035;52.094;5.112;2022-10-16T00:04:09;6.47;;;2.40;;
62030;SDS011;62035;52.094;5.112;2022-10-16T00:06:37;5.13;;;1.85;;
62030;SDS011;62035;52.094;5.112;2022-10-16T00:09:05;6.00;;;1.60;;
62030;SDS011;62035;52.094;5.112;2022-10-16T00:11:35;5.28;;;1.88;;
62030;SDS011;62035;52.094;5.112;2022-10-16T00:14:08;5.15;;;1.80;;
62030;SDS011;62035;52.094;5.112;2022-10-16T00:16:39;5.00;;;1.85;;
62030;SDS011;62035;52.094;5.112;2022-10-16T00:19:08;5.57;;;1.70;;
62030;SDS011;62035;52.094;5.112;2022-10-16T00:21:38;5.90;;;1.70;;
62030;SDS011;62035;52.094;5.112;2022-10-16T00:24:06;8.80;;;2.05;;
62030;SDS011;62035;52.094;5.112;2022-10-16T00:26:36;4.22;;;1.75;;
62030;SDS011;62035;52.094;5.112;2022-10-16T00:29:06;6.70;;;1.77;;
62030;SDS011;62035;52.094;5.112;2022-10-16T00:31:36;4.40;;;1.70;;
62030;SDS011;62035;52.094;5.112;2022-10-16T00:34:04;5.95;;;2.00;;
62030;SDS011;62035;52.094;5.112;2022-10-16T00:36:31;8.07;;;2.30;;
62030;SDS011;62035;52.094;5.112;2022-10-16T00:38:59;5.75;;;1.77;;
62030;SDS011;62035;52.094;5.112;2022-10-16T00:41:27;4.68;;;1.88;;
62030;SDS011;62035;52.094;5.112;2022-10-16T00:43:57;5.03;;;1.95;;
62030;SDS011;62035;52.094;5.112;2022-10-16T00:46:27;3.90;;;1.88;;
62030;SDS011;62035;52.094;5.112;2022-10-16T00:48:59;6.38;;;2.33;;
62030;SDS011;62035;52.094;5.112;2022-10-16T00:51:32;4.10;;;1.83;;
62030;SDS011;62035;52.094;5.112;2022-10-16T00:54:03;3.70;;;1.83;;
62030;SDS011;62035;52.094;5.112;2022-10-16T00:56:37;3.75;;;1.90;;
62030;SDS011;62035;52.094;5.112;2022-10-16T00:59:04;3.35;;;1.73;;
62030;SDS011;62035;52.094;5.112;2022-10-16T01:01:48;4.25;;;1.95;;
62030;SDS011;62035;52.094;5.112;2022-10-16T01:04:16;3.45;;;1.70;;
62030;SDS011;62035;52.094;5.112;2022-10-16T01:06:46;6.43;;;2.28;;
62030;SDS011;62035;52.094;5.112;2022-10-16T01:09:28;5.85;;;2.10;;
62030;SDS011;62035;52.094;5.112;2022-10-16T01:12:09;6.88;;;2.00;;
62030;SDS011;62035;52.094;5.112;2022-10-16T01:14:43;6.85;;;2.40;;
62030;SDS011;62035;52.094;5.112;2022-10-16T01:17:21;4.82;;;2.30;;
62030;SDS011;62035;52.094;5.112;2022-10-16T01:20:05;4.30;;;2.08;;
62030;SDS011;62035;52.094;5.112;2022-10-16T01:22:44;5.75;;;2.15;;
62030;SDS011;62035;52.094;5.112;2022-10-16T01:25:30;5.93;;;1.90;;
62030;SDS011;62035;52.094;5.112;2022-10-16T01:28:17;6.10;;;2.17;;
62030;SDS011;62035;52.094;5.112;2022-10-16T01:30:50;3.78;;;1.95;;
62030;SDS011;62035;52.094;5.112;2022-10-16T01:33:26;4.82;;;2.58;;
62030;SDS011;62035;52.094;5.112;2022-10-16T01:36:07;5.40;;;2.97;;
62030;SDS011;62035;52.094;5.112;2022-10-16T01:38:40;7.60;;;2.50;;
62030;SDS011;62035;52.094;5.112;2022-10-16T01:41:15;4.00;;;2.08;;
62030;SDS011;62035;52.094;5.112;2022-10-16T01:43:53;5.53;;;2.30;;
62030;SDS011;62035;52.094;5.112;2022-10-16T01:46:30;4.55;;;2.45;;
62030;SDS011;62035;52.094;5.112;2022-10-16T01:49:00;6.53;;;2.20;;
62030;SDS011;62035;52.094;5.112;2022-10-16T01:51:30;3.83;;;2.35;;
62030;SDS011;62035;52.094;5.112;2022-10-16T01:53:59;5.25;;;2.25;;
62030;SDS011;62035;52.094;5.112;2022-10-16T01:56:29;4.55;;;2.72;;
62030;SDS011;62035;52.094;5.112;2022-10-16T01:59:01;6.57;;;2.25;;
62030;SDS011;62035;52.094;5.112;2022-10-16T02:01:34;6.95;;;2.42;;
62030;SDS011;62035;52.094;5.112;2022-10-16T02:04:07;5.30;;;2.20;;
62030;SDS011;62035;52.094;5.112;2022-10-16T02:06:42;9.73;;;2.42;;
62030;SDS011;62035;52.094;5.112;2022-10-16T02:09:10;4.15;;;2.53;;
62030;SDS011;62035;52.094;5.112;2022-10-16T02:11:38;6.18;;;1.92;;
62030;SDS011;62035;52.094;5.112;2022-10-16T02:14:07;5.85;;;2.22;;
62030;SDS011;62035;52.094;5.112;2022-10-16T02:16:36;7.53;;;2.47;;
62030;SDS011;62035;52.094;5.112;2022-10-16T02:19:05;5.83;;;2.30;;
62030;SDS011;62035;52.094;5.112;2022-10-16T02:21:36;6.82;;;2.17;;
62030;SDS011;62035;52.094;5.112;2022-10-16T02:24:15;6.82;;;2.38;;
62030;SDS011;62035;52.094;5.112;2022-10-16T02:26:57;4.93;;;2.30;;
62030;SDS011;62035;52.094;5.112;2022-10-16T02:29:36;3.55;;;2.22;;
62030;SDS011;62035;52.094;5.112;2022-10-16T02:32:11;5.43;;;2.45;;
62030;SDS011;62035;52.094;5.112;2022-10-16T02:34:44;7.22;;;2.33;;
62030;SDS011;62035;52.094;5.112;2022-10-16T02:37:15;9.35;;;2.60;;
62030;SDS011;62035;52.094;5.112;2022-10-16T02:39:45;7.32;;;2.70;;
62030;SDS011;62035;52.094;5.112;2022-10-16T02:42:13;4.32;;;2.22;;
62030;SDS011;62035;52.094;5.112;2022-10-16T02:44:45;6.80;;;2.38;;
62030;SDS011;62035;52.094;5.112;2022-10-16T02:47:13;4.68;;;2.30;;
62030;SDS011;62035;52.094;5.112;2022-10-16T02:49:40;2.97;;;2.10;;
62030;SDS011;62035;52.094;5.112;2022-10-16T02:52:08;3.30;;;2.25;;
62030;SDS011;62035;52.094;5.112;2022-10-16T02:54:35;5.15;;;2.38;;
62030;SDS011;62035;52.094;5.112;2022-10-16T02:57:03;4.57;;;2.40;;
62030;SDS011;62035;52.094;5.112;2022-10-16T02:59:31;4.03;;;2.00;;
62030;SDS011;62035;52.094;5.112;2022-10-16T03:02:00;6.50;;;2.05;;
62030;SDS011;62035;52.094;5.112;2022-10-16T03:04:27;7.55;;;2.15;;
62030;SDS011;62035;52.094;5.112;2022-10-16T03:06:55;7.97;;;2.20;;
62030;SDS011;62035;52.094;5.112;2022-10-16T03:09:22;4.25;;;2.10;;
62030;SDS011;62035;52.094;5.112;2022-10-16T03:11:50;6.25;;;2.17;;
62030;SDS011;62035;52.094;5.112;2022-10-16T03:14:18;4.80;;;2.28;;
62030;SDS011;62035;52.094;5.112;2022-10-16T03:16:45;5.68;;;2.28;;
62030;SDS011;62035;52.094;5.112;2022-10-16T03:19:15;6.93;;;2.10;;
62030;SDS011;62035;52.094;5.112;2022-10-16T03:21:44;2.90;;;1.60;;
62030;SDS011;62035;52.094;5.112;2022-10-16T03:24:11;3.47;;;2.30;;
62030;SDS011;62035;52.094;5.112;2022-10-16T03:26:39;4.38;;;2.20;;
62030;SDS011;62035;52.094;5.112;2022-10-16T03:29:07;3.75;;;2.20;;
62030;SDS011;62035;52.094;5.112;2022-10-16T03:31:34;3.17;;;1.70;;
62030;SDS011;62035;52.094;5.112;2022-10-16T03:34:02;3.55;;;1.77;;
62030;SDS011;62035;52.094;5.112;2022-10-16T03:36:31;3.00;;;1.98;;
62030;SDS011;62035;52.094;5.112;2022-10-16T03:38:58;2.95;;;1.90;;
62030;SDS011;62035;52.094;5.112;2022-10-16T03:41:26;2.72;;;1.70;;
62030;SDS011;62035;52.094;5.112;2022-10-16T03:43:54;3.85;;;2.38;;
62030;SDS011;62035;52.094;5.112;2022-10-16T03:46:21;9.43;;;2.30;;
62030;SDS011;62035;52.094;5.112;2022-10-16T03:48:49;3.65;;;1.75;;
62030;SDS011;62035;52.094;5.112;2022-10-16T03:51:16;4.85;;;1.80;;
62030;SDS011;62035;52.094;5.112;2022-10-16T03:53:45;2.60;;;1.80;;
62030;SDS011;62035;52.094;5.112;2022-10-16T03:56:13;3.75;;;1.75;;
62030;SDS011;62035;52.094;5.112;2022-10-16T03:58:40;5.28;;;1.75;;
62030;SDS011;62035;52.094;5.112;2022-10-16T04:01:08;3.15;;;1.88;;
62030;SDS011;62035;52.094;5.112;2022-10-16T04:03:35;3.67;;;2.10;;
62030;SDS011;62035;52.094;5.112;2022-10-16T04:06:03;4.80;;;1.85;;
62030;SDS011;62035;52.094;5.112;2022-10-16T04:08:31;8.00;;;1.98;;
62030;SDS011;62035;52.094;5.112;2022-10-16T04:11:02;5.40;;;1.75;;
62030;SDS011;62035;52.094;5.112;2022-10-16T04:13:30;3.60;;;1.85;;
62030;SDS011;62035;52.094;5.112;2022-10-16T04:15:57;4.15;;;1.77;;
62030;SDS011;62035;52.094;5.112;2022-10-16T04:18:25;5.75;;;1.75;;
62030;SDS011;62035;52.094;5.112;2022-10-16T04:20:53;6.38;;;2.42;;
62030;SDS011;62035;52.094;5.112;2022-10-16T04:23:21;6.03;;;1.75;;
62030;SDS011;62035;52.094;5.112;2022-10-16T04:25:49;5.97;;;1.90;;
62030;SDS011;62035;52.094;5.112;2022-10-16T04:28:19;4.82;;;1.88;;
62030;SDS011;62035;52.094;5.112;2022-10-16T04:30:46;2.70;;;1.52;;
62030;SDS011;62035;52.094;5.112;2022-10-16T04:33:14;7.28;;;1.60;;
62030;SDS011;62035;52.094;5.112;2022-10-16T04:35:41;2.92;;;1.60;;
62030;SDS011;62035;52.094;5.112;2022-10-16T04:38:09;4.20;;;1.73;;
62030;SDS011;62035;52.094;5.112;2022-10-16T04:40:37;4.53;;;1.98;;
62030;SDS011;62035;52.094;5.112;2022-10-16T04:43:04;3.10;;;1.83;;
62030;SDS011;62035;52.094;5.112;2022-10-16T04:45:34;4.68;;;1.92;;
62030;SDS011;62035;52.094;5.112;2022-10-16T04:48:02;4.00;;;1.90;;
62030;SDS011;62035;52.094;5.112;2022-10-16T04:50:30;5.13;;;1.70;;
62030;SDS011;62035;52.094;5.112;2022-10-16T04:52:57;4.50;;;1.80;;
62030;SDS011;62035;52.094;5.112;2022-10-16T04:55:25;2.97;;;1.65;;
62030;SDS011;62035;52.094;5.112;2022-10-16T04:57:53;4.35;;;1.90;;
62030;SDS011;62035;52.094;5.112;2022-10-16T05:00:20;5.55;;;1.90;;
62030;SDS011;62035;52.094;5.112;2022-10-16T05:02:50;3.58;;;1.75;;
62030;SDS011;62035;52.094;5.112;2022-10-16T05:05:18;5.30;;;1.85;;
62030;SDS011;62035;52.094;5.112;2022-10-16T05:07:46;2.58;;;1.70;;
62030;SDS011;62035;52.094;5.112;2022-10-16T05:10:15;6.93;;;1.95;;
62030;SDS011;62035;52.094;5.112;2022-10-16T05:12:43;3.13;;;1.83;;
62030;SDS011;62035;52.094;5.112;2022-10-16T05:15:10;5.85;;;1.90;;
62030;SDS011;62035;52.094;5.112;2022-10-16T05:17:38;3.70;;;2.00;;
62030;SDS011;62035;52.094;5.112;2022-10-16T05:20:08;7.45;;;1.65;;
62030;SDS011;62035;52.094;5.112;2022-10-16T05:22:35;3.72;;;2.13;;
62030;SDS011;62035;52.094;5.112;2022-10-16T05:25:03;4.03;;;1.98;;
62030;SDS011;62035;52.094;5.112;2022-10-16T05:27:32;4.75;;;1.83;;
62030;SDS011;62035;52.094;5.112;2022-10-16T05:29:59;4.10;;;2.15;;
62030;SDS011;62035;52.094;5.112;2022-10-16T05:32:27;4.45;;;2.10;;
62030;SDS011;62035;52.094;5.112;2022-10-16T05:34:54;5.13;;;2.17;;
62030;SDS011;62035;52.094;5.112;2022-10-16T05:37:23;9.35;;;2.17;;
62030;SDS011;62035;52.094;5.112;2022-10-16T05:39:51;3.85;;;1.90;;
62030;SDS011;62035;52.094;5.112;2022-10-16T05:42:18;4.28;;;1.80;;
62030;SDS011;62035;52.094;5.112;2022-10-16T05:44:46;6.00;;;2.10;;
62030;SDS011;62035;52.094;5.112;2022-10-16T05:47:13;7.97;;;2.05;;
62030;SDS011;62035;52.094;5.112;2022-10-16T05:49:41;3.08;;;1.90;;
62030;SDS011;62035;52.094;5.112;2022-10-16T05:52:08;7.00;;;2.28;;
62030;SDS011;62035;52.094;5.112;2022-10-16T05:54:37;8.13;;;2.45;;
62030;SDS011;62035;52.094;5.112;2022-10-16T05:57:05;4.93;;;1.90;;
62030;SDS011;62035;52.094;5.112;2022-10-16T05:59:32;6.95;;;2.22;;
62030;SDS011;62035;52.094;5.112;2022-10-16T06:02:00;4.05;;;2.00;;
62030;SDS011;62035;52.094;5.112;2022-10-16T06:04:27;5.47;;;2.08;;
62030;SDS011;62035;52.094;5.112;2022-10-16T06:06:57;2.95;;;2.10;;
62030;SDS011;62035;52.094;5.112;2022-10-16T06:11:55;2.75;;;1.88;;
62030;SDS011;62035;52.094;5.112;2022-10-16T06:14:23;7.00;;;2.20;;
62030;SDS011;62035;52.094;5.112;2022-10-16T06:16:51;7.20;;;2.65;;
62030;SDS011;62035;52.094;5.112;2022-10-16T06:19:18;7.60;;;2.55;;
62030;SDS011;62035;52.094;5.112;2022-10-16T06:21:46;4.32;;;2.13;;
62030;SDS011;62035;52.094;5.112;2022-10-16T06:24:13;5.22;;;2.20;;
62030;SDS011;62035;52.094;5.112;2022-10-16T06:26:41;5.38;;;2.45;;
62030;SDS011;62035;52.094;5.112;2022-10-16T06:29:10;4.70;;;2.17;;
62030;SDS011;62035;52.094;5.112;2022-10-16T06:31:38;10.23;;;2.45;;
62030;SDS011;62035;52.094;5.112;2022-10-16T06:34:05;8.30;;;2.42;;
62030;SDS011;62035;52.094;5.112;2022-10-16T06:36:36;6.28;;;2.40;;
62030;SDS011;62035;52.094;5.112;2022-10-16T06:39:04;5.07;;;2.33;;
62030;SDS011;62035;52.094;5.112;2022-10-16T06:41:33;6.78;;;2.42;;
62030;SDS011;62035;52.094;5.112;2022-10-16T06:44:01;6.97;;;2.40;;
62030;SDS011;62035;52.094;5.112;2022-10-16T06:46:34;5.93;;;2.30;;
62030;SDS011;62035;52.094;5.112;2022-10-16T06:49:02;10.60;;;2.20;;
62030;SDS011;62035;52.094;5.112;2022-10-16T06:51:30;6.97;;;2.33;;
62030;SDS011;62035;52.094;5.112;2022-10-16T06:54:00;3.63;;;1.80;;
62030;SDS011;62035;52.094;5.112;2022-10-16T06:56:28;7.38;;;1.83;;
62030;SDS011;62035;52.094;5.112;2022-10-16T06:58:56;6.78;;;2.00;;
62030;SDS011;62035;52.094;5.112;2022-10-16T07:01:24;4.57;;;1.70;;
62030;SDS011;62035;52.094;5.112;2022-10-16T07:03:54;4.90;;;1.90;;
62030;SDS011;62035;52.094;5.112;2022-10-16T07:06:23;7.32;;;1.80;;
62030;SDS011;62035;52.094;5.112;2022-10-16T07:08:52;4.30;;;1.58;;
62030;SDS011;62035;52.094;5.112;2022-10-16T07:11:21;7.28;;;1.80;;
62030;SDS011;62035;52.094;5.112;2022-10-16T07:13:50;8.85;;;1.80;;
62030;SDS011;62035;52.094;5.112;2022-10-16T07:16:19;10.77;;;1.98;;
62030;SDS011;62035;52.094;5.112;2022-10-16T07:18:49;5.70;;;2.13;;
62030;SDS011;62035;52.094;5.112;2022-10-16T07:21:19;5.40;;;1.55;;
62030;SDS011;62035;52.094;5.112;2022-10-16T07:23:49;5.50;;;1.83;;
62030;SDS011;62035;52.094;5.112;2022-10-16T07:26:18;4.05;;;1.30;;
62030;SDS011;62035;52.094;5.112;2022-10-16T07:28:45;7.07;;;2.00;;
62030;SDS011;62035;52.094;5.112;2022-10-16T07:31:13;3.35;;;1.42;;
62030;SDS011;62035;52.094;5.112;2022-10-16T07:33:43;5.40;;;1.42;;
62030;SDS011;62035;52.094;5.112;2022-10-16T07:36:13;3.90;;;1.60;;
62030;SDS011;62035;52.094;5.112;2022-10-16T07:38:44;7.18;;;1.95;;
62030;SDS011;62035;52.094;5.112;2022-10-16T07:41:13;4.15;;;1.80;;
62030;SDS011;62035;52.094;5.112;2022-10-16T07:43:45;5.68;;;1.80;;
62030;SDS011;62035;52.094;5.112;2022-10-16T07:46:14;5.07;;;1.80;;
62030;SDS011;62035;52.094;5.112;2022-10-16T07:48:43;6.57;;;1.92;;
62030;SDS011;62035;52.094;5.112;2022-10-16T07:51:13;4.85;;;1.90;;
62030;SDS011;62035;52.094;5.112;2022-10-16T07:53:44;5.07;;;2.35;;
62030;SDS011;62035;52.094;5.112;2022-10-16T07:56:13;6.00;;;2.17;;
62030;SDS011;62035;52.094;5.112;2022-10-16T07:58:42;7.25;;;2.22;;
62030;SDS011;62035;52.094;5.112;2022-10-16T08:01:11;6.03;;;2.50;;
62030;SDS011;62035;52.094;5.112;2022-10-16T08:03:41;7.00;;;3.03;;
62030;SDS011;62035;52.094;5.112;2022-10-16T08:06:10;6.55;;;2.20;;
62030;SDS011;62035;52.094;5.112;2022-10-16T08:08:37;9.25;;;2.30;;
62030;SDS011;62035;52.094;5.112;2022-10-16T08:11:07;5.63;;;2.22;;
62030;SDS011;62035;52.094;5.112;2022-10-16T08:13:35;6.00;;;2.05;;
62030;SDS011;62035;52.094;5.112;2022-10-16T08:16:03;6.07;;;2.25;;
62030;SDS011;62035;52.094;5.112;2022-10-16T08:18:33;6.80;;;2.38;;
62030;SDS011;62035;52.094;5.112;2022-10-16T08:21:02;6.65;;;2.03;;
62030;SDS011;62035;52.094;5.112;2022-10-16T08:23:32;6.82;;;1.77;;
62030;SDS011;62035;52.094;5.112;2022-10-16T08:26:02;6.03;;;1.95;;
62030;SDS011;62035;52.094;5.112;2022-10-16T08:28:33;5.05;;;2.35;;
62030;SDS011;62035;52.094;5.112;2022-10-16T08:31:05;6.30;;;2.00;;
62030;SDS011;62035;52.094;5.112;2022-10-16T08:33:35;8.10;;;2.00;;
62030;SDS011;62035;52.094;5.112;2022-10-16T08:36:03;6.35;;;2.10;;
62030;SDS011;62035;52.094;5.112;2022-10-16T08:38:33;6.55;;;2.10;;
62030;SDS011;62035;52.094;5.112;2022-10-16T08:41:04;11.57;;;2.30;;
62030;SDS011;62035;52.094;5.112;2022-10-16T08:44:24;8.00;;;2.20;;
62030;SDS011;62035;52.094;5.112;2022-10-16T08:47:13;12.10;;;2.00;;
62030;SDS011;62035;52.094;5.112;2022-10-16T08:49:52;8.70;;;2.08;;
62030;SDS011;62035;52.094;5.112;2022-10-16T08:52:28;6.82;;;2.30;;
62030;SDS011;62035;52.094;5.112;2022-10-16T08:55:01;7.20;;;1.95;;
62030;SDS011;62035;52.094;5.112;2022-10-16T08:57:31;7.03;;;1.90;;
62030;SDS011;62035;52.094;5.112;2022-10-16T09:00:00;11.05;;;2.13;;
62030;SDS011;62035;52.094;5.112;2022-10-16T09:05:24;12.00;;;2.10;;
62030;SDS011;62035;52.094;5.112;2022-10-16T09:08:17;5.70;;;1.73;;
62030;SDS011;62035;52.094;5.112;2022-10-16T09:10:57;8.20;;;2.20;;
62030;SDS011;62035;52.094;5.112;2022-10-16T09:13:33;7.28;;;2.03;;
62030;SDS011;62035;52.094;5.112;2022-10-16T09:16:14;6.25;;;2.25;;
62030;SDS011;62035;52.094;5.112;2022-10-16T09:18:51;8.10;;;1.90;;
62030;SDS011;62035;52.094;5.112;2022-10-16T09:21:28;8.93;;;1.73;;
62030;SDS011;62035;52.094;5.112;2022-10-16T09:23:58;7.95;;;1.95;;
62030;SDS011;62035;52.094;5.112;2022-10-16T09:26:37;9.88;;;2.72;;
62030;SDS011;62035;52.094;5.112;2022-10-16T09:29:04;8.57;;;1.92;;
62030;SDS011;62035;52.094;5.112;2022-10-16T09:31:33;10.13;;;2.30;;
62030;SDS011;62035;52.094;5.112;2022-10-16T09:34:03;10.30;;;2.20;;
62030;SDS011;62035;52.094;5.112;2022-10-16T09:36:39;7.47;;;3.03;;
62030;SDS011;62035;52.094;5.112;2022-10-16T09:39:11;6.15;;;2.08;;
62030;SDS011;62035;52.094;5.112;2022-10-16T09:41:39;8.90;;;3.05;;
62030;SDS011;62035;52.094;5.112;2022-10-16T09:44:16;7.78;;;2.03;;
62030;SDS011;62035;52.094;5.112;2022-10-16T09:47:01;7.82;;;2.08;;
62030;SDS011;62035;52.094;5.112;2022-10-16T09:49:30;12.25;;;2.53;;
62030;SDS011;62035;52.094;5.112;2022-10-16T09:52:11;7.55;;;2.03;;
62030;SDS011;62035;52.094;5.112;2022-10-16T09:54:48;13.23;;;4.10;;
62030;SDS011;62035;52.094;5.112;2022-10-16T09:57:18;10.68;;;2.50;;
62030;SDS011;62035;52.094;5.112;2022-10-16T09:59:47;8.25;;;2.45;;
62030;SDS011;62035;52.094;5.112;2022-10-16T10:02:18;8.02;;;2.35;;
62030;SDS011;62035;52.094;5.112;2022-10-16T10:04:50;14.63;;;2.72;;
62030;SDS011;62035;52.094;5.112;2022-10-16T10:07:23;10.27;;;2.30;;
62030;SDS011;62035;52.094;5.112;2022-10-16T10:09:53;10.02;;;2.10;;
62030;SDS011;62035;52.094;5.112;2022-10-16T10:12:24;6.93;;;2.15;;
62030;SDS011;62035;52.094;5.112;2022-10-16T10:14:55;14.32;;;2.35;;
62030;SDS011;62035;52.094;5.112;2022-10-16T10:17:27;15.68;;;2.40;;
62030;SDS011;62035;52.094;5.112;2022-10-16T10:19:56;6.70;;;2.00;;
62030;SDS011;62035;52.094;5.112;2022-10-16T10:22:31;11.75;;;2.60;;
62030;SDS011;62035;52.094;5.112;2022-10-16T10:25:12;8.77;;;2.90;;
62030;SDS011;62035;52.094;5.112;2022-10-16T10:30:49;12.88;;;2.33;;
62030;SDS011;62035;52.094;5.112;2022-10-16T10:33:34;15.93;;;2.97;;
62030;SDS011;62035;52.094;5.112;2022-10-16T10:36:14;13.68;;;2.78;;
62030;SDS011;62035;52.094;5.112;2022-10-16T10:38:54;10.07;;;2.20;;
62030;SDS011;62035;52.094;5.112;2022-10-16T10:44:44;12.02;;;2.40;;
62030;SDS011;62035;52.094;5.112;2022-10-16T10:47:44;11.45;;;2.05;;
62030;SDS011;62035;52.094;5.112;2022-10-16T10:53:12;9.80;;;1.98;;
62030;SDS011;62035;52.094;5.112;2022-10-16T10:55:58;7.78;;;1.60;;
62030;SDS011;62035;52.094;5.112;2022-10-16T11:02:10;11.13;;;2.15;;
62030;SDS011;62035;52.094;5.112;2022-10-16T11:04:54;9.95;;;2.42;;
62030;SDS011;62035;52.094;5.112;2022-10-16T11:08:02;14.45;;;2.35;;
62030;SDS011;62035;52.094;5.112;2022-10-16T11:10:42;10.25;;;2.40;;
62030;SDS011;62035;52.094;5.112;2022-10-16T11:13:24;11.13;;;1.98;;
62030;SDS011;62035;52.094;5.112;2022-10-16T11:16:00;10.38;;;2.00;;
62030;SDS011;62035;52.094;5.112;2022-10-16T11:18:42;10.90;;;2.05;;
62030;SDS011;62035;52.094;5.112;2022-10-16T11:21:19;12.95;;;2.13;;
62030;SDS011;62035;52.094;5.112;2022-10-16T11:23:53;15.38;;;1.92;;
62030;SDS011;62035;52.094;5.112;2022-10-16T11:26:28;8.98;;;1.88;;
62030;SDS011;62035;52.094;5.112;2022-10-16T11:29:10;9.70;;;2.28;;
62030;SDS011;62035;52.094;5.112;2022-10-16T11:31:48;10.80;;;2.00;;
62030;SDS011;62035;52.094;5.112;2022-10-16T11:34:22;12.27;;;2.15;;
62030;SDS011;62035;52.094;5.112;2022-10-16T11:37:01;7.10;;;2.60;;
62030;SDS011;62035;52.094;5.112;2022-10-16T11:39:39;15.25;;;2.40;;
62030;SDS011;62035;52.094;5.112;2022-10-16T11:42:10;10.25;;;1.80;;
62030;SDS011;62035;52.094;5.112;2022-10-16T11:44:50;9.80;;;2.00;;
62030;SDS011;62035;52.094;5.112;2022-10-16T11:47:30;7.70;;;1.90;;
62030;SDS011;62035;52.094;5.112;2022-10-16T11:50:05;12.88;;;2.13;;
62030;SDS011;62035;52.094;5.112;2022-10-16T11:52:53;11.13;;;2.03;;
62030;SDS011;62035;52.094;5.112;2022-10-16T11:55:31;14.63;;;2.83;;
62030;SDS011;62035;52.094;5.112;2022-10-16T11:58:04;13.95;;;2.33;;
62030;SDS011;62035;52.094;5.112;2022-10-16T12:00:40;10.32;;;1.90;;
62030;SDS011;62035;52.094;5.112;2022-10-16T12:03:20;6.43;;;1.95;;
62030;SDS011;62035;52.094;5.112;2022-10-16T12:05:59;9.45;;;2.63;;
62030;SDS011;62035;52.094;5.112;2022-10-16T12:08:46;9.63;;;2.10;;
62030;SDS011;62035;52.094;5.112;2022-10-16T12:11:24;13.27;;;2.20;;
62030;SDS011;62035;52.094;5.112;2022-10-16T12:17:02;8.77;;;1.77;;
62030;SDS011;62035;52.094;5.112;2022-10-16T12:19:56;5.68;;;1.67;;
62030;SDS011;62035;52.094;5.112;2022-10-16T12:22:27;14.63;;;2.17;;
62030;SDS011;62035;52.094;5.112;2022-10-16T12:24:57;7.20;;;2.10;;
62030;SDS011;62035;52.094;5.112;2022-10-16T12:27:29;11.65;;;2.22;;
62030;SDS011;62035;52.094;5.112;2022-10-16T12:30:00;10.23;;;1.60;;
62030;SDS011;62035;52.094;5.112;2022-10-16T12:32:32;10.90;;;2.70;;
62030;SDS011;62035;52.094;5.112;2022-10-16T12:35:02;11.77;;;2.45;;
62030;SDS011;62035;52.094;5.112;2022-10-16T12:37:44;7.03;;;1.70;;
62030;SDS011;62035;52.094;5.112;2022-10-16T12:40:12;13.27;;;2.30;;
62030;SDS011;62035;52.094;5.112;2022-10-16T12:42:53;8.35;;;2.22;;
62030;SDS011;62035;52.094;5.112;2022-10-16T12:45:26;14.35;;;2.20;;
62030;SDS011;62035;52.094;5.112;2022-10-16T12:47:57;9.38;;;2.13;;
62030;SDS011;62035;52.094;5.112;2022-10-16T12:50:27;8.07;;;2.00;;
62030;SDS011;62035;52.094;5.112;2022-10-16T12:53:02;14.00;;;2.28;;
62030;SDS011;62035;52.094;5.112;2022-10-16T12:55:45;12.93;;;2.15;;
62030;SDS011;62035;52.094;5.112;2022-10-16T12:58:31;11.85;;;2.03;;
62030;SDS011;62035;52.094;5.112;2022-10-16T13:01:24;14.43;;;3.90;;
62030;SDS011;62035;52.094;5.112;2022-10-16T13:04:10;6.25;;;2.00;;
62030;SDS011;62035;52.094;5.112;2022-10-16T13:07:06;8.73;;;1.67;;
62030;SDS011;62035;52.094;5.112;2022-10-16T13:10:09;10.75;;;1.95;;
62030;SDS011;62035;52.094;5.112;2022-10-16T13:12:57;7.57;;;1.63;;
62030;SDS011;62035;52.094;5.112;2022-10-16T13:15:50;10.18;;;1.88;;
62030;SDS011;62035;52.094;5.112;2022-10-16T13:18:32;17.58;;;2.30;;
62030;SDS011;62035;52.094;5.112;2022-10-16T13:21:18;11.90;;;1.73;;
62030;SDS011;62035;52.094;5.112;2022-10-16T13:24:03;14.68;;;2.47;;
62030;SDS011;62035;52.094;5.112;2022-10-16T13:26:49;9.88;;;2.30;;
62030;SDS011;62035;52.094;5.112;2022-10-16T13:29:29;9.90;;;2.10;;
62030;SDS011;62035;52.094;5.112;2022-10-16T13:31:59;8.57;;;1.70;;
62030;SDS011;62035;52.094;5.112;2022-10-16T13:34:41;11.52;;;2.10;;
62030;SDS011;62035;52.094;5.112;2022-10-16T13:37:16;10.55;;;2.28;;
62030;SDS011;62035;52.094;5.112;2022-10-16T13:39:46;12.73;;;2.28;;
62030;SDS011;62035;52.094;5.112;2022-10-16T13:42:20;10.35;;;2.10;;
62030;SDS011;62035;52.094;5.112;2022-10-16T13:44:53;12.63;;;1.80;;
62030;SDS011;62035;52.094;5.112;2022-10-16T13:47:25;8.15;;;1.70;;
62030;SDS011;62035;52.094;5.112;2022-10-16T13:52:29;9.98;;;2.10;;
62030;SDS011;62035;52.094;5.112;2022-10-16T13:54:58;8.85;;;1.73;;
62030;SDS011;62035;52.094;5.112;2022-10-16T13:57:25;8.45;;;2.00;;
62030;SDS011;62035;52.094;5.112;2022-10-16T13:59:53;10.70;;;2.00;;
62030;SDS011;62035;52.094;5.112;2022-10-16T14:02:22;13.70;;;2.17;;
62030;SDS011;62035;52.094;5.112;2022-10-16T14:05:00;9.70;;;2.25;;
62030;SDS011;62035;52.094;5.112;2022-10-16T14:07:31;11.17;;;2.00;;
62030;SDS011;62035;52.094;5.112;2022-10-16T14:10:02;13.55;;;2.15;;
62030;SDS011;62035;52.094;5.112;2022-10-16T14:12:33;14.13;;;2.55;;
62030;SDS011;62035;52.094;5.112;2022-10-16T14:15:02;10.75;;;2.28;;
62030;SDS011;62035;52.094;5.112;2022-10-16T14:17:32;8.00;;;2.20;;
62030;SDS011;62035;52.094;5.112;2022-10-16T14:20:03;8.75;;;1.90;;
62030;SDS011;62035;52.094;5.112;2022-10-16T14:22:40;14.10;;;2.22;;
62030;SDS011;62035;52.094;5.112;2022-10-16T14:25:20;10.95;;;2.00;;
62030;SDS011;62035;52.094;5.112;2022-10-16T14:27:57;9.38;;;1.92;;
62030;SDS011;62035;52.094;5.112;2022-10-16T14:30:30;14.60;;;2.55;;
62030;SDS011;62035;52.094;5.112;2022-10-16T14:33:02;12.00;;;2.05;;
62030;SDS011;62035;52.094;5.112;2022-10-16T14:38:02;9.55;;;2.20;;
62030;SDS011;62035;52.094;5.112;2022-10-16T14:40:33;14.70;;;2.77;;
62030;SDS011;62035;52.094;5.112;2022-10-16T14:43:04;8.18;;;2.03;;
62030;SDS011;62035;52.094;5.112;2022-10-16T14:45:32;13.93;;;2.35;;
62030;SDS011;62035;52.094;5.112;2022-10-16T14:48:04;7.32;;;2.10;;
62030;SDS011;62035;52.094;5.112;2022-10-16T14:50:44;15.57;;;2.45;;
62030;SDS011;62035;52.094;5.112;2022-10-16T14:53:12;8.43;;;2.05;;
62030;SDS011;62035;52.094;5.112;2022-10-16T14:55:41;9.00;;;2.17;;
62030;SDS011;62035;52.094;5.112;2022-10-16T14:58:10;11.18;;;2.28;;
62030;SDS011;62035;52.094;5.112;2022-10-16T15:00:43;8.57;;;2.00;;
62030;SDS011;62035;52.094;5.112;2022-10-16T15:03:12;14.75;;;2.35;;
62030;SDS011;62035;52.094;5.112;2022-10-16T15:05:40;9.68;;;1.83;;
62030;SDS011;62035;52.094;5.112;2022-10-16T15:08:07;9.13;;;2.05;;
62030;SDS011;62035;52.094;5.112;2022-10-16T15:10:38;10.35;;;1.73;;
62030;SDS011;62035;52.094;5.112;2022-10-16T15:13:11;11.13;;;2.78;;
62030;SDS011;62035;52.094;5.112;2022-10-16T15:15:40;9.20;;;2.30;;
62030;SDS011;62035;52.094;5.112;2022-10-16T15:20:40;11.25;;;2.55;;
62030;SDS011;62035;52.094;5.112;2022-10-16T15:23:12;10.93;;;2.17;;
62030;SDS011;62035;52.094;5.112;2022-10-16T15:25:42;6.45;;;2.03;;
62030;SDS011;62035;52.094;5.112;2022-10-16T15:28:12;14.00;;;2.22;;
62030;SDS011;62035;52.094;5.112;2022-10-16T15:30:42;16.15;;;2.50;;
62030;SDS011;62035;52.094;5.112;2022-10-16T15:33:14;10.32;;;2.17;;
62030;SDS011;62035;52.094;5.112;2022-10-16T15:35:46;10.68;;;2.55;;
62030;SDS011;62035;52.094;5.112;2022-10-16T15:38:14;10.38;;;2.58;;
62030;SDS011;62035;52.094;5.112;2022-10-16T15:40:45;12.80;;;2.85;;
62030;SDS011;62035;52.094;5.112;2022-10-16T15:43:12;11.55;;;2.53;;
62030;SDS011;62035;52.094;5.112;2022-10-16T15:45:40;9.65;;;2.22;;